Time;durP1;ratioP1;P1;durP2;ratioP2;P2;SDS_P1;SDS_P2;PMS_P1;PMS_P2;Temp;Humidity;BMP_temperature;BMP_pressure;BME280_temperature;BME280_humidity;BME280_pressure;Samples;Min_cycle;Max_cycle;Signal;HPM_P1;HPM_P2
2023/02/05 00:02:09;;;;;;;25.67;11.77;;;;;;;;;;5004267;28;20036;-78
2023/02/05 00:04:35;;;;;;;22.65;11.15;;;;;;;;;;4983213;28;20682;-78
2023/02/05 00:07:01;;;;;;;25.77;11.45;;;;;;;;;;4998317;28;20022;-78
2023/02/05 00:09:27;;;;;;;24.70;12.23;;;;;;;;;;4981625;28;20489;-78
2023/02/05 00:11:56;;;;;;;28.08;11.50;;;;;;;;;;5002989;28;20030;-78
2023/02/05 00:14:22;;;;;;;29.95;12.18;;;;;;;;;;4984869;28;20489;-78
2023/02/05 00:16:48;;;;;;;29.85;11.15;;;;;;;;;;5012356;28;20375;-78
2023/02/05 00:19:13;;;;;;;22.80;11.38;;;;;;;;;;5010299;28;20026;-78
2023/02/05 00:21:39;;;;;;;25.13;11.50;;;;;;;;;;5008209;28;20114;-78
2023/02/05 00:24:05;;;;;;;23.85;10.63;;;;;;;;;;5008094;28;20058;-78
2023/02/05 00:26:30;;;;;;;24.30;11.05;;;;;;;;;;5013165;28;20398;-78
2023/02/05 00:28:56;;;;;;;26.63;12.20;;;;;;;;;;5001753;28;20024;-78
2023/02/05 00:31:22;;;;;;;28.83;13.50;;;;;;;;;;5010809;28;20056;-78
2023/02/05 00:33:49;;;;;;;28.33;14.18;;;;;;;;;;4983158;28;20062;-78
2023/02/05 00:36:15;;;;;;;25.33;12.90;;;;;;;;;;4986566;28;20120;-78
2023/02/05 00:38:41;;;;;;;25.73;13.07;;;;;;;;;;4990202;28;20122;-78
2023/02/05 00:41:07;;;;;;;29.13;13.93;;;;;;;;;;5002363;28;20053;-77
2023/02/05 00:43:32;;;;;;;30.70;14.48;;;;;;;;;;5004596;28;20022;-78
2023/02/05 00:45:58;;;;;;;28.58;13.68;;;;;;;;;;4990294;28;20030;-78
2023/02/05 00:48:23;;;;;;;25.77;13.20;;;;;;;;;;4995258;28;20069;-77
2023/02/05 00:50:50;;;;;;;30.73;14.57;;;;;;;;;;4992195;28;20034;-78
2023/02/05 00:53:16;;;;;;;27.35;13.55;;;;;;;;;;5006826;28;20466;-78
2023/02/05 00:55:41;;;;;;;28.38;14.85;;;;;;;;;;5005500;28;20061;-78
2023/02/05 00:58:06;;;;;;;31.52;14.27;;;;;;;;;;4988620;28;20406;-78
2023/02/05 01:00:32;;;;;;;25.02;13.68;;;;;;;;;;4989493;28;20113;-78
2023/02/05 01:02:58;;;;;;;27.63;14.00;;;;;;;;;;5010034;28;20502;-78
2023/02/05 01:05:24;;;;;;;24.25;12.57;;;;;;;;;;5002320;28;20036;-78
2023/02/05 01:07:49;;;;;;;26.33;13.77;;;;;;;;;;4990032;28;20073;-78
2023/02/05 01:10:15;;;;;;;25.88;13.65;;;;;;;;;;5002762;28;20022;-78
2023/02/05 01:12:40;;;;;;;26.15;12.73;;;;;;;;;;5007824;28;20025;-78
2023/02/05 01:15:07;;;;;;;26.80;14.00;;;;;;;;;;5008579;28;20092;-78
2023/02/05 01:17:32;;;;;;;29.38;13.82;;;;;;;;;;5005623;28;20487;-78
2023/02/05 01:19:58;;;;;;;25.55;13.50;;;;;;;;;;4996327;28;20022;-78
2023/02/05 01:22:23;;;;;;;27.17;14.20;;;;;;;;;;4990410;28;20121;-78
2023/02/05 01:24:49;;;;;;;23.70;12.88;;;;;;;;;;5007800;28;20070;-78
2023/02/05 01:27:14;;;;;;;21.60;12.48;;;;;;;;;;5005196;28;20026;-78
2023/02/05 01:29:40;;;;;;;23.70;12.52;;;;;;;;;;4983349;28;20113;-78
2023/02/05 01:32:05;;;;;;;27.15;13.88;;;;;;;;;;5008415;28;20034;-78
2023/02/05 01:34:30;;;;;;;27.00;13.23;;;;;;;;;;5008300;28;20042;-78
2023/02/05 01:36:56;;;;;;;25.42;13.32;;;;;;;;;;5004166;28;20509;-78
2023/02/05 01:39:21;;;;;;;24.67;12.85;;;;;;;;;;5000652;28;20032;-78
2023/02/05 01:41:47;;;;;;;22.40;13.02;;;;;;;;;;4994142;28;20038;-78
2023/02/05 01:44:23;;;;;;;21.70;12.50;;;;;;;;;;4990074;28;20085;-78
2023/02/05 01:46:49;;;;;;;24.25;13.02;;;;;;;;;;5002488;28;20022;-78
2023/02/05 01:49:29;;;;;;;23.75;12.65;;;;;;;;;;4990518;28;20034;-78
2023/02/05 01:52:02;;;;;;;20.77;11.88;;;;;;;;;;5007831;28;20109;-78
2023/02/05 01:54:29;;;;;;;20.40;12.93;;;;;;;;;;5005850;28;20168;-78
2023/02/05 01:57:03;;;;;;;22.80;12.18;;;;;;;;;;4990922;28;20042;-78
2023/02/05 01:59:33;;;;;;;20.83;11.70;;;;;;;;;;5002165;28;20033;-78
2023/02/05 02:02:00;;;;;;;20.65;11.98;;;;;;;;;;4988679;28;20034;-78
2023/02/05 02:04:31;;;;;;;19.33;11.02;;;;;;;;;;5003552;28;20467;-77
2023/02/05 02:07:00;;;;;;;17.95;11.55;;;;;;;;;;5004208;28;20362;-78
2023/02/05 02:09:26;;;;;;;19.58;10.38;;;;;;;;;;5007396;28;20080;-78
2023/02/05 02:11:52;;;;;;;24.45;11.60;;;;;;;;;;4982916;28;20034;-78
2023/02/05 02:14:18;;;;;;;17.85;11.02;;;;;;;;;;5009733;28;20501;-77
2023/02/05 02:16:44;;;;;;;19.33;11.18;;;;;;;;;;5007866;28;20030;-78
2023/02/05 02:19:42;;;;;;;17.85;11.05;;;;;;;;;;5002928;28;20113;-77
2023/02/05 02:22:07;;;;;;;16.60;10.18;;;;;;;;;;4997003;28;20532;-78
2023/02/05 02:25:05;;;;;;;17.10;10.40;;;;;;;;;;4994221;28;20029;-78
2023/02/05 02:28:01;;;;;;;21.13;10.30;;;;;;;;;;5001362;28;20026;-78
2023/02/05 02:30:31;;;;;;;19.38;10.48;;;;;;;;;;5003521;28;20438;-78
2023/02/05 02:33:05;;;;;;;16.40;9.35;;;;;;;;;;5004980;28;20034;-78
2023/02/05 02:35:50;;;;;;;21.23;11.07;;;;;;;;;;4999305;28;20509;-78
2023/02/05 02:38:36;;;;;;;18.30;11.02;;;;;;;;;;4988799;28;20022;-78
2023/02/05 02:41:18;;;;;;;17.77;10.50;;;;;;;;;;5002245;28;20082;-78
2023/02/05 02:43:52;;;;;;;18.77;9.75;;;;;;;;;;5004752;28;20108;-78
2023/02/05 02:46:35;;;;;;;19.20;10.40;;;;;;;;;;4983200;28;20050;-78
2023/02/05 02:49:05;;;;;;;18.25;10.60;;;;;;;;;;5000512;28;20022;-78
2023/02/05 02:51:32;;;;;;;18.77;10.43;;;;;;;;;;4999532;28;20056;-78
2023/02/05 02:54:02;;;;;;;21.40;11.43;;;;;;;;;;4982052;28;20041;-78
2023/02/05 02:56:30;;;;;;;19.83;11.00;;;;;;;;;;4987077;28;20061;-78
2023/02/05 02:59:00;;;;;;;21.40;10.95;;;;;;;;;;5003463;28;20513;-78
2023/02/05 03:01:31;;;;;;;22.40;11.85;;;;;;;;;;5002054;28;20462;-78
2023/02/05 03:04:00;;;;;;;22.00;11.27;;;;;;;;;;5004056;28;20044;-78
2023/02/05 03:06:28;;;;;;;19.00;10.43;;;;;;;;;;4988345;28;20032;-78
2023/02/05 03:08:59;;;;;;;22.02;11.57;;;;;;;;;;5004046;28;20573;-78
2023/02/05 03:11:25;;;;;;;21.05;11.15;;;;;;;;;;5004408;28;20482;-78
2023/02/05 03:13:51;;;;;;;19.10;10.25;;;;;;;;;;5008852;28;20491;-78
2023/02/05 03:16:18;;;;;;;21.88;11.15;;;;;;;;;;5011313;28;20022;-78
2023/02/05 03:18:44;;;;;;;19.73;10.68;;;;;;;;;;5005640;28;20025;-78
2023/02/05 03:21:17;;;;;;;23.05;11.80;;;;;;;;;;5009950;28;20060;-78
2023/02/05 03:23:43;;;;;;;20.35;10.80;;;;;;;;;;5003426;28;20497;-78
2023/02/05 03:26:37;;;;;;;23.25;10.57;;;;;;;;;;5005194;28;20042;-78
2023/02/05 03:29:10;;;;;;;20.20;11.25;;;;;;;;;;4989465;28;20038;-78
2023/02/05 03:31:39;;;;;;;21.65;11.27;;;;;;;;;;5001734;28;20529;-78
2023/02/05 03:34:25;;;;;;;19.17;11.15;;;;;;;;;;5007145;28;20123;-78
2023/02/05 03:37:09;;;;;;;20.52;10.85;;;;;;;;;;5003954;28;20057;-78
2023/02/05 03:39:38;;;;;;;17.60;9.55;;;;;;;;;;5005559;28;20541;-78
2023/02/05 03:42:16;;;;;;;19.70;10.57;;;;;;;;;;5007293;28;20058;-78
2023/02/05 03:44:57;;;;;;;20.13;10.35;;;;;;;;;;4989582;28;20025;-78
2023/02/05 03:47:48;;;;;;;17.70;9.75;;;;;;;;;;5004684;28;20045;-78
2023/02/05 03:50:27;;;;;;;15.98;9.18;;;;;;;;;;5006127;28;20557;-78
2023/02/05 03:53:29;;;;;;;19.02;9.57;;;;;;;;;;5003424;28;20108;-78
2023/02/05 03:56:26;;;;;;;16.63;8.43;;;;;;;;;;5006972;28;20498;-78
2023/02/05 03:58:55;;;;;;;15.95;8.57;;;;;;;;;;5005559;28;20018;-78
2023/02/05 04:01:21;;;;;;;15.70;8.60;;;;;;;;;;5005400;28;20033;-78
2023/02/05 04:03:46;;;;;;;15.82;7.63;;;;;;;;;;5007790;28;20113;-78
2023/02/05 04:06:12;;;;;;;18.75;8.20;;;;;;;;;;5007484;28;20058;-78
2023/02/05 04:08:37;;;;;;;15.13;7.85;;;;;;;;;;4985749;28;20037;-78
2023/02/05 04:11:03;;;;;;;14.52;7.85;;;;;;;;;;4989445;28;20121;-78
2023/02/05 04:13:28;;;;;;;14.02;7.18;;;;;;;;;;5002120;28;20030;-78
2023/02/05 04:15:54;;;;;;;12.73;6.60;;;;;;;;;;5008483;28;20418;-78
2023/02/05 04:18:19;;;;;;;13.57;6.82;;;;;;;;;;5001700;28;20052;-78
2023/02/05 04:20:45;;;;;;;12.02;6.45;;;;;;;;;;5002787;28;20046;-78
2023/02/05 04:23:10;;;;;;;15.15;6.43;;;;;;;;;;4989214;28;20044;-78
2023/02/05 04:25:38;;;;;;;13.25;6.35;;;;;;;;;;5008888;28;20121;-78
2023/02/05 04:28:04;;;;;;;11.60;6.18;;;;;;;;;;4990768;28;20033;-78
2023/02/05 04:30:30;;;;;;;10.45;4.95;;;;;;;;;;5003540;28;20037;-78
2023/02/05 04:32:55;;;;;;;12.55;5.65;;;;;;;;;;5010029;28;20112;-78
2023/02/05 04:35:20;;;;;;;9.35;5.60;;;;;;;;;;5006110;28;20114;-78
2023/02/05 04:37:46;;;;;;;9.35;5.18;;;;;;;;;;4987944;28;20037;-77
2023/02/05 04:40:11;;;;;;;7.03;3.85;;;;;;;;;;5007136;28;20026;-77
2023/02/05 04:42:37;;;;;;;10.50;3.95;;;;;;;;;;5008105;28;20033;-78
2023/02/05 04:45:04;;;;;;;8.32;4.32;;;;;;;;;;5006080;28;20037;-78
2023/02/05 04:47:30;;;;;;;9.07;3.60;;;;;;;;;;4994744;28;20501;-78
2023/02/05 04:49:55;;;;;;;8.60;3.75;;;;;;;;;;4991938;28;20025;-78
2023/02/05 04:52:21;;;;;;;7.65;3.58;;;;;;;;;;5007014;28;20026;-78
2023/02/05 04:54:46;;;;;;;7.00;3.22;;;;;;;;;;5001645;28;20094;-78
2023/02/05 04:57:11;;;;;;;5.28;2.55;;;;;;;;;;5008984;28;20048;-78
2023/02/05 04:59:37;;;;;;;6.43;3.10;;;;;;;;;;5005904;28;20021;-77
2023/02/05 05:02:02;;;;;;;7.65;3.25;;;;;;;;;;4987696;28;20086;-78
2023/02/05 05:04:28;;;;;;;5.78;2.65;;;;;;;;;;4997852;28;20029;-77
2023/02/05 05:06:53;;;;;;;6.45;3.00;;;;;;;;;;4987663;28;20118;-77
2023/02/05 05:09:22;;;;;;;6.35;2.97;;;;;;;;;;5006497;28;20057;-77
2023/02/05 05:11:51;;;;;;;6.40;2.97;;;;;;;;;;5006615;28;20490;-77
2023/02/05 05:14:17;;;;;;;5.70;2.78;;;;;;;;;;4993803;28;20362;-77
2023/02/05 05:16:42;;;;;;;6.15;3.10;;;;;;;;;;5003148;28;20618;-77
2023/02/05 05:19:07;;;;;;;6.75;2.97;;;;;;;;;;4990288;28;20108;-77
2023/02/05 05:21:33;;;;;;;6.18;3.13;;;;;;;;;;5000822;28;20088;-77
2023/02/05 05:23:59;;;;;;;7.20;3.65;;;;;;;;;;5002353;28;20042;-77
2023/02/05 05:26:25;;;;;;;7.50;3.25;;;;;;;;;;5005820;28;20490;-77
2023/02/05 05:28:54;;;;;;;7.57;3.17;;;;;;;;;;5008527;28;20030;-77
2023/02/05 05:31:20;;;;;;;6.47;3.70;;;;;;;;;;5001860;28;20022;-77
2023/02/05 05:33:46;;;;;;;8.10;3.60;;;;;;;;;;5005742;28;20030;-77
2023/02/05 05:36:12;;;;;;;9.10;4.00;;;;;;;;;;5004920;28;20088;-77
2023/02/05 05:38:37;;;;;;;7.75;4.05;;;;;;;;;;5005957;28;20022;-77
2023/02/05 05:43:48;;;;;;;8.57;3.92;;;;;;;;;;5003218;28;20570;-77
2023/02/05 05:46:22;;;;;;;7.22;3.88;;;;;;;;;;5004693;28;20034;-77
2023/02/05 05:48:57;;;;;;;9.98;4.30;;;;;;;;;;5007770;28;20059;-77
2023/02/05 05:51:24;;;;;;;7.53;4.47;;;;;;;;;;5004900;28;20040;-77
2023/02/05 05:53:50;;;;;;;8.02;4.40;;;;;;;;;;5006112;28;20092;-77
2023/02/05 05:56:16;;;;;;;6.78;3.97;;;;;;;;;;4989947;28;20050;-77
2023/02/05 05:58:42;;;;;;;7.50;3.83;;;;;;;;;;4985024;28;20034;-77
2023/02/05 06:01:09;;;;;;;8.07;3.67;;;;;;;;;;5005122;28;20092;-77
2023/02/05 06:03:34;;;;;;;4.88;3.20;;;;;;;;;;4991137;28;20029;-77
2023/02/05 06:06:02;;;;;;;6.50;3.70;;;;;;;;;;5009043;28;20037;-77
2023/02/05 06:08:27;;;;;;;6.53;3.45;;;;;;;;;;4991844;28;20073;-78
2023/02/05 06:10:53;;;;;;;4.60;3.00;;;;;;;;;;5001394;28;20041;-77
2023/02/05 06:13:18;;;;;;;6.50;3.03;;;;;;;;;;4989246;28;20068;-78
2023/02/05 06:15:44;;;;;;;5.80;2.83;;;;;;;;;;5001809;28;20034;-78
2023/02/05 06:18:09;;;;;;;6.45;2.83;;;;;;;;;;5007787;28;20562;-78
2023/02/05 06:20:34;;;;;;;5.07;2.60;;;;;;;;;;5004967;28;20030;-77
2023/02/05 06:23:00;;;;;;;3.65;2.03;;;;;;;;;;5003227;28;20029;-78
2023/02/05 06:25:25;;;;;;;4.15;1.75;;;;;;;;;;5010373;28;20018;-77
2023/02/05 06:27:51;;;;;;;1.92;0.93;;;;;;;;;;5005334;28;20441;-78
2023/02/05 06:30:16;;;;;;;4.10;0.80;;;;;;;;;;5006317;28;20494;-78
2023/02/05 06:32:42;;;;;;;2.08;0.70;;;;;;;;;;5004275;28;20030;-78
2023/02/05 06:35:07;;;;;;;2.67;0.90;;;;;;;;;;5007370;28;20390;-78
2023/02/05 06:37:33;;;;;;;1.75;0.60;;;;;;;;;;5002922;28;20037;-77
2023/02/05 06:39:58;;;;;;;4.63;0.90;;;;;;;;;;5006808;28;20033;-77
2023/02/05 06:42:23;;;;;;;3.42;0.60;;;;;;;;;;4988608;28;20040;-77
2023/02/05 06:44:49;;;;;;;2.70;0.50;;;;;;;;;;5007201;28;20026;-78
2023/02/05 06:47:14;;;;;;;4.22;0.52;;;;;;;;;;5009070;28;20036;-78
2023/02/05 06:49:39;;;;;;;6.68;0.60;;;;;;;;;;5010691;28;20425;-78
2023/02/05 06:52:05;;;;;;;3.25;0.45;;;;;;;;;;5011755;28;20065;-77
2023/02/05 06:54:31;;;;;;;4.20;0.77;;;;;;;;;;5003569;28;20383;-77
2023/02/05 06:56:56;;;;;;;3.58;0.57;;;;;;;;;;5012959;28;20030;-77
2023/02/05 06:59:22;;;;;;;3.78;0.63;;;;;;;;;;5007392;28;20014;-77
2023/02/05 07:01:47;;;;;;;3.38;0.40;;;;;;;;;;5006080;28;21684;-77
2023/02/05 07:04:13;;;;;;;3.47;0.40;;;;;;;;;;4997872;28;20026;-77
2023/02/05 07:06:38;;;;;;;2.83;0.38;;;;;;;;;;5009216;28;20590;-77
2023/02/05 07:09:04;;;;;;;3.63;0.40;;;;;;;;;;4986878;28;20096;-77
2023/02/05 07:11:29;;;;;;;4.38;0.47;;;;;;;;;;4989481;28;20457;-77
2023/02/05 07:13:55;;;;;;;2.33;0.35;;;;;;;;;;4991350;28;20025;-77
2023/02/05 07:16:20;;;;;;;1.88;0.32;;;;;;;;;;4984058;28;20060;-78
2023/02/05 07:18:45;;;;;;;3.50;0.50;;;;;;;;;;5008741;28;20037;-78
2023/02/05 07:21:17;;;;;;;3.78;1.05;;;;;;;;;;4996415;28;20057;-79
2023/02/05 07:23:43;;;;;;;5.00;0.75;;;;;;;;;;5009378;28;20032;-78
2023/02/05 07:26:11;;;;;;;2.78;0.70;;;;;;;;;;5011491;28;20037;-77
2023/02/05 07:28:37;;;;;;;4.35;0.52;;;;;;;;;;4985563;28;20549;-77
2023/02/05 07:31:07;;;;;;;2.40;0.57;;;;;;;;;;5007797;28;20128;-77
2023/02/05 07:33:32;;;;;;;4.95;0.70;;;;;;;;;;5009535;28;20025;-77
2023/02/05 07:36:02;;;;;;;2.53;0.50;;;;;;;;;;5012630;28;20472;-78
2023/02/05 07:38:27;;;;;;;3.65;0.65;;;;;;;;;;4991269;28;20018;-78
2023/02/05 07:40:52;;;;;;;2.80;0.65;;;;;;;;;;5000062;28;20081;-77
2023/02/05 07:43:18;;;;;;;2.90;0.50;;;;;;;;;;4990963;28;20056;-77
2023/02/05 07:45:43;;;;;;;5.57;0.98;;;;;;;;;;5004785;28;20482;-78
2023/02/05 07:48:09;;;;;;;8.55;1.00;;;;;;;;;;5010812;28;20022;-77
2023/02/05 07:50:34;;;;;;;6.45;0.70;;;;;;;;;;5009246;28;20099;-77
2023/02/05 07:52:59;;;;;;;5.38;1.02;;;;;;;;;;4994076;28;20058;-78
2023/02/05 07:55:25;;;;;;;2.50;0.70;;;;;;;;;;5004631;28;20030;-78
2023/02/05 07:57:50;;;;;;;6.57;1.15;;;;;;;;;;5007967;28;20033;-78
2023/02/05 08:00:16;;;;;;;5.40;1.30;;;;;;;;;;4991420;28;20109;-78
2023/02/05 08:02:41;;;;;;;6.00;1.15;;;;;;;;;;5007432;28;20119;-77
2023/02/05 08:05:07;;;;;;;4.82;0.90;;;;;;;;;;4986653;28;20037;-77
2023/02/05 08:07:32;;;;;;;7.72;0.80;;;;;;;;;;5000752;28;20038;-77
2023/02/05 08:09:58;;;;;;;6.22;0.98;;;;;;;;;;5005163;28;20038;-77
2023/02/05 08:12:23;;;;;;;7.68;0.82;;;;;;;;;;5005684;28;20091;-77
2023/02/05 08:14:48;;;;;;;4.88;0.77;;;;;;;;;;5009704;28;20141;-77
2023/02/05 08:17:14;;;;;;;5.93;0.73;;;;;;;;;;5009238;28;20049;-77
2023/02/05 08:19:40;;;;;;;4.90;0.85;;;;;;;;;;4991172;28;20077;-78
2023/02/05 08:22:06;;;;;;;4.00;0.80;;;;;;;;;;5001112;28;20037;-77
2023/02/05 08:24:31;;;;;;;5.00;0.80;;;;;;;;;;5005074;28;20022;-78
2023/02/05 08:26:57;;;;;;;6.13;1.00;;;;;;;;;;4993612;28;20033;-78
2023/02/05 08:29:22;;;;;;;6.15;1.30;;;;;;;;;;4996867;28;20131;-78
2023/02/05 08:31:48;;;;;;;4.35;0.70;;;;;;;;;;5007329;28;20064;-77
2023/02/05 08:34:14;;;;;;;7.53;1.55;;;;;;;;;;5009789;28;20028;-78
2023/02/05 08:36:40;;;;;;;6.50;1.17;;;;;;;;;;4992615;28;20041;-78
2023/02/05 08:39:05;;;;;;;3.85;1.10;;;;;;;;;;5001304;28;20018;-78
2023/02/05 08:41:31;;;;;;;8.60;1.10;;;;;;;;;;4984140;28;20124;-78
2023/02/05 08:43:56;;;;;;;7.13;0.90;;;;;;;;;;5008683;28;20100;-78
2023/02/05 08:46:24;;;;;;;6.82;0.90;;;;;;;;;;5006675;28;20049;-77
2023/02/05 08:48:52;;;;;;;6.82;1.20;;;;;;;;;;5005125;28;20076;-77
2023/02/05 08:51:18;;;;;;;10.15;1.63;;;;;;;;;;5006677;28;20038;-78
2023/02/05 08:53:44;;;;;;;10.98;1.23;;;;;;;;;;5009973;28;20033;-77
2023/02/05 08:56:12;;;;;;;9.02;1.33;;;;;;;;;;5000979;28;20033;-77
2023/02/05 08:58:39;;;;;;;8.38;1.65;;;;;;;;;;5012126;28;20026;-77
2023/02/05 09:01:13;;;;;;;11.07;1.65;;;;;;;;;;4988888;28;20084;-77
2023/02/05 09:03:38;;;;;;;7.45;1.30;;;;;;;;;;4988341;28;20030;-78
2023/02/05 09:06:13;;;;;;;9.45;1.10;;;;;;;;;;5002733;28;20110;-78
2023/02/05 09:08:39;;;;;;;10.10;1.80;;;;;;;;;;5003671;28;20777;-78
2023/02/05 09:11:05;;;;;;;7.38;1.35;;;;;;;;;;5006880;28;20034;-78
2023/02/05 09:13:31;;;;;;;7.80;1.20;;;;;;;;;;5007557;28;20444;-78
2023/02/05 09:15:56;;;;;;;9.05;1.80;;;;;;;;;;5006895;28;20109;-77
2023/02/05 09:18:22;;;;;;;9.82;1.67;;;;;;;;;;4987404;28;20022;-77
2023/02/05 09:20:49;;;;;;;11.88;1.73;;;;;;;;;;5007578;28;20390;-79
2023/02/05 09:23:17;;;;;;;8.82;1.23;;;;;;;;;;4989433;28;20036;-77
2023/02/05 09:25:42;;;;;;;9.93;1.95;;;;;;;;;;5008373;28;20033;-77
2023/02/05 09:28:10;;;;;;;12.40;1.45;;;;;;;;;;5003087;28;20041;-77
2023/02/05 09:30:41;;;;;;;10.38;2.05;;;;;;;;;;4983480;28;20064;-77
2023/02/05 09:33:07;;;;;;;8.70;1.10;;;;;;;;;;5004461;28;20045;-77
2023/02/05 09:35:34;;;;;;;10.60;1.55;;;;;;;;;;5004755;28;20035;-77
2023/02/05 09:38:01;;;;;;;12.68;1.75;;;;;;;;;;5009609;28;20026;-78
2023/02/05 09:40:34;;;;;;;8.20;1.67;;;;;;;;;;5005972;28;20029;-77
2023/02/05 09:43:18;;;;;;;7.85;1.55;;;;;;;;;;5004616;28;20030;-77
2023/02/05 09:45:49;;;;;;;;;;;;;;;;;;5000436;28;20087;-78
2023/02/05 09:48:32;;;;;;;12.57;2.05;;;;;;;;;;5000253;28;19922;-78
2023/02/05 09:50:58;;;;;;;9.70;1.67;;;;;;;;;;5003864;28;20544;-78
2023/02/05 09:53:27;;;;;;;7.65;1.27;;;;;;;;;;5005709;28;20034;-78
2023/02/05 09:55:53;;;;;;;7.22;1.60;;;;;;;;;;5006188;28;20482;-78
2023/02/05 09:58:26;;;;;;;8.45;1.65;;;;;;;;;;5006109;28;20053;-78
2023/02/05 10:01:01;;;;;;;14.68;1.85;;;;;;;;;;4984157;28;20048;-78
2023/02/05 10:03:31;;;;;;;6.40;1.92;;;;;;;;;;4987848;28;20454;-78
2023/02/05 10:06:08;;;;;;;12.05;1.92;;;;;;;;;;5000249;28;20033;-77
2023/02/05 10:08:45;;;;;;;13.13;1.63;;;;;;;;;;4999496;28;20064;-77
2023/02/05 10:11:40;;;;;;;14.43;1.85;;;;;;;;;;4997329;28;20064;-78
2023/02/05 10:14:23;;;;;;;8.70;1.33;;;;;;;;;;4994102;28;20506;-78
2023/02/05 10:17:28;;;;;;;15.25;2.45;;;;;;;;;;5001395;28;20041;-77
2023/02/05 10:20:08;;;;;;;17.63;2.40;;;;;;;;;;4979973;28;20073;-77
2023/02/05 10:23:02;;;;;;;10.50;1.45;;;;;;;;;;4999771;28;20083;-77
2023/02/05 10:25:41;;;;;;;12.02;1.95;;;;;;;;;;5001020;28;20234;-77
2023/02/05 10:28:22;;;;;;;12.45;1.80;;;;;;;;;;5007374;28;20026;-77
2023/02/05 10:31:09;;;;;;;12.27;2.15;;;;;;;;;;4987160;28;20038;-78
2023/02/05 10:33:45;;;;;;;13.88;1.73;;;;;;;;;;5002313;28;20396;-78
2023/02/05 10:36:11;;;;;;;13.48;2.30;;;;;;;;;;5003928;28;20033;-78
2023/02/05 10:38:44;;;;;;;11.05;1.98;;;;;;;;;;5008460;28;20433;-78
2023/02/05 10:41:21;;;;;;;10.85;1.50;;;;;;;;;;4986096;28;20517;-78
2023/02/05 10:43:58;;;;;;;6.80;1.23;;;;;;;;;;4985490;28;20119;-78
2023/02/05 10:46:29;;;;;;;12.50;1.70;;;;;;;;;;5002018;28;20096;-78
2023/02/05 10:49:06;;;;;;;9.63;1.92;;;;;;;;;;5003346;28;20034;-78
2023/02/05 10:51:39;;;;;;;7.93;1.45;;;;;;;;;;5004643;28;20029;-78
2023/02/05 10:54:05;;;;;;;7.68;1.17;;;;;;;;;;5001463;28;20034;-78
2023/02/05 10:56:31;;;;;;;6.45;0.77;;;;;;;;;;5004811;28;20033;-78
2023/02/05 10:59:01;;;;;;;8.27;1.42;;;;;;;;;;5004124;28;20062;-78
2023/02/05 11:01:35;;;;;;;11.25;1.60;;;;;;;;;;5001703;28;20505;-77
2023/02/05 11:04:13;;;;;;;9.68;1.75;;;;;;;;;;4991411;28;20567;-78
2023/02/05 11:06:42;;;;;;;13.23;1.38;;;;;;;;;;4990444;28;20088;-78
2023/02/05 11:09:23;;;;;;;9.77;1.52;;;;;;;;;;5000183;28;20042;-78
2023/02/05 11:12:24;;;;;;;12.23;1.70;;;;;;;;;;4979777;28;20034;-78
2023/02/05 11:14:56;;;;;;;11.75;2.08;;;;;;;;;;4945650;28;20115;-78
2023/02/05 11:17:30;;;;;;;7.20;1.70;;;;;;;;;;4994013;28;20042;-78
2023/02/05 11:19:59;;;;;;;13.98;1.60;;;;;;;;;;4996957;28;20526;-77
2023/02/05 11:22:38;;;;;;;9.00;1.48;;;;;;;;;;4996254;28;20026;-77
2023/02/05 11:25:26;;;;;;;13.60;2.42;;;;;;;;;;4994528;28;20361;-77
2023/02/05 11:28:03;;;;;;;13.93;2.10;;;;;;;;;;4975571;28;20065;-78
2023/02/05 11:30:32;;;;;;;6.70;1.65;;;;;;;;;;4994647;28;21482;-77
2023/02/05 11:33:14;;;;;;;9.45;2.05;;;;;;;;;;4995867;28;20060;-78
2023/02/05 11:35:40;;;;;;;10.43;1.30;;;;;;;;;;4990130;28;20460;-78
2023/02/05 11:38:08;;;;;;;18.27;2.35;;;;;;;;;;4996217;28;20287;-78
2023/02/05 11:40:35;;;;;;;12.98;3.25;;;;;;;;;;5000479;28;20034;-78
2023/02/05 11:43:26;;;;;;;8.05;0.93;;;;;;;;;;4990772;28;20034;-78
2023/02/05 11:45:53;;;;;;;10.57;2.03;;;;;;;;;;4994339;28;20030;-77
2023/02/05 11:48:38;;;;;;;12.52;2.03;;;;;;;;;;4991091;28;20794;-78
2023/02/05 11:51:06;;;;;;;11.98;1.95;;;;;;;;;;4993155;28;20061;-77
2023/02/05 11:53:34;;;;;;;13.27;2.15;;;;;;;;;;4995887;28;20048;-77
2023/02/05 11:56:04;;;;;;;11.15;1.90;;;;;;;;;;4999967;28;20422;-78
2023/02/05 11:58:31;;;;;;;9.02;1.77;;;;;;;;;;4993567;28;20037;-78
2023/02/05 12:00:59;;;;;;;13.50;1.90;;;;;;;;;;4999240;28;20075;-77
2023/02/05 12:03:29;;;;;;;12.07;1.90;;;;;;;;;;4994658;28;20570;-78
2023/02/05 12:06:04;;;;;;;11.02;1.27;;;;;;;;;;4996816;28;20514;-77
2023/02/05 12:08:30;;;;;;;17.55;2.20;;;;;;;;;;4993067;28;20061;-77
2023/02/05 12:11:19;;;;;;;13.02;1.95;;;;;;;;;;4995352;28;20065;-78
2023/02/05 12:14:12;;;;;;;10.38;2.10;;;;;;;;;;4984687;28;20030;-77
2023/02/05 12:17:13;;;;;;;10.30;1.70;;;;;;;;;;4997203;28;20037;-77
2023/02/05 12:20:07;;;;;;;10.68;1.48;;;;;;;;;;4945853;28;20137;-77
2023/02/05 12:22:45;;;;;;;12.63;1.73;;;;;;;;;;4976329;28;20497;-78
2023/02/05 12:25:32;;;;;;;10.20;1.67;;;;;;;;;;4994414;28;20521;-77
2023/02/05 12:28:10;;;;;;;9.68;1.48;;;;;;;;;;4990491;28;20032;-78
2023/02/05 12:31:02;;;;;;;11.90;1.40;;;;;;;;;;4992055;28;20038;-77
2023/02/05 12:33:49;;;;;;;14.80;2.00;;;;;;;;;;4991807;28;20545;-78
2023/02/05 12:36:30;;;;;;;15.57;1.85;;;;;;;;;;4987795;28;20033;-78
2023/02/05 12:39:16;;;;;;;11.75;1.83;;;;;;;;;;4997031;28;20042;-78
2023/02/05 12:41:53;;;;;;;8.02;1.88;;;;;;;;;;4996849;28;20302;-78
2023/02/05 12:44:48;;;;;;;10.63;1.48;;;;;;;;;;4992049;28;20038;-78
2023/02/05 12:47:32;;;;;;;8.27;1.58;;;;;;;;;;4989877;28;20089;-77
2023/02/05 12:50:31;;;;;;;14.98;1.73;;;;;;;;;;4988950;28;20394;-78
2023/02/05 12:53:12;;;;;;;13.68;2.03;;;;;;;;;;4992123;28;20021;-78
2023/02/05 12:56:04;;;;;;;10.95;1.40;;;;;;;;;;4996155;28;20034;-77
2023/02/05 12:58:44;;;;;;;9.43;1.42;;;;;;;;;;4997278;28;20083;-78
2023/02/05 13:01:38;;;;;;;13.07;1.77;;;;;;;;;;4974065;28;20057;-78
2023/02/05 13:04:06;;;;;;;12.52;2.38;;;;;;;;;;4975126;28;20033;-78
2023/02/05 13:06:45;;;;;;;13.73;1.88;;;;;;;;;;4991341;28;20391;-78
2023/02/05 13:09:23;;;;;;;14.63;1.88;;;;;;;;;;4991871;28;20026;-77
2023/02/05 13:12:05;;;;;;;15.82;1.73;;;;;;;;;;4993273;28;20036;-78
2023/02/05 13:14:39;;;;;;;8.80;1.10;;;;;;;;;;4991600;28;20124;-78
2023/02/05 13:17:18;;;;;;;13.93;1.65;;;;;;;;;;4978049;28;20076;-77
2023/02/05 13:19:53;;;;;;;8.90;1.48;;;;;;;;;;4990779;28;20022;-77
2023/02/05 13:28:41;;;;;;;10.90;1.50;;;;;;;;;;4995109;28;19924;-78
2023/02/05 13:31:36;;;;;;;12.48;1.77;;;;;;;;;;4995415;28;20585;-78
2023/02/05 13:34:04;;;;;;;8.07;1.55;;;;;;;;;;4984495;28;20464;-78
2023/02/05 13:36:41;;;;;;;12.07;1.63;;;;;;;;;;4987692;28;20117;-77
2023/02/05 13:39:44;;;;;;;13.27;1.70;;;;;;;;;;4991710;28;20714;-78
2023/02/05 13:42:18;;;;;;;9.90;1.60;;;;;;;;;;4993576;28;20168;-78
2023/02/05 13:45:02;;;;;;;14.73;1.92;;;;;;;;;;4997231;28;20030;-78
2023/02/05 13:47:27;;;;;;;8.52;1.52;;;;;;;;;;4992320;28;20041;-78
2023/02/05 13:50:14;;;;;;;11.20;1.80;;;;;;;;;;4995316;28;20034;-78
2023/02/05 13:52:57;;;;;;;16.05;2.10;;;;;;;;;;4993100;28;20446;-78
2023/02/05 13:55:48;;;;;;;10.23;1.50;;;;;;;;;;4991638;28;20026;-77
2023/02/05 13:58:28;;;;;;;12.50;1.67;;;;;;;;;;4977592;28;20036;-77
2023/02/05 14:00:59;;;;;;;11.35;1.92;;;;;;;;;;4994557;28;20509;-78
2023/02/05 14:03:29;;;;;;;8.80;1.10;;;;;;;;;;4993825;28;20304;-77
2023/02/05 14:05:55;;;;;;;9.95;1.35;;;;;;;;;;4992262;28;20022;-77
2023/02/05 14:08:24;;;;;;;10.48;1.30;;;;;;;;;;4972654;28;20037;-78
2023/02/05 14:11:18;;;;;;;6.80;1.20;;;;;;;;;;4993068;28;20030;-78
2023/02/05 14:14:03;;;;;;;;;;;;;;;;;;4973197;28;20038;-78
2023/02/05 14:16:28;;;;;;;8.63;1.98;;;;;;;;;;4994907;28;19936;-78
2023/02/05 14:19:00;;;;;;;8.45;1.25;;;;;;;;;;4992152;28;20033;-78
2023/02/05 14:21:28;;;;;;;7.60;1.67;;;;;;;;;;4990576;28;20368;-78
2023/02/05 14:23:55;;;;;;;13.10;2.38;;;;;;;;;;4991380;28;20676;-77
2023/02/05 14:26:48;;;;;;;10.80;1.60;;;;;;;;;;4990885;28;20030;-78
2023/02/05 14:29:43;;;;;;;10.75;1.33;;;;;;;;;;4992214;28;20076;-78
2023/02/05 14:32:28;;;;;;;14.65;2.22;;;;;;;;;;4990952;28;20041;-77
2023/02/05 14:35:24;;;;;;;11.48;1.92;;;;;;;;;;4986972;28;20092;-78
2023/02/05 14:37:50;;;;;;;13.90;1.67;;;;;;;;;;4994138;28;20117;-77
2023/02/05 14:40:24;;;;;;;10.25;1.55;;;;;;;;;;4978532;28;20034;-78
2023/02/05 14:42:53;;;;;;;13.40;1.73;;;;;;;;;;4992154;28;20506;-78
2023/02/05 14:45:22;;;;;;;8.50;1.40;;;;;;;;;;4973016;28;20309;-78
2023/02/05 14:47:48;;;;;;;10.02;1.42;;;;;;;;;;4974722;28;20033;-78
2023/02/05 14:50:21;;;;;;;9.38;1.50;;;;;;;;;;4991830;28;20037;-78
2023/02/05 14:52:52;;;;;;;12.45;1.83;;;;;;;;;;4991436;28;20307;-77
2023/02/05 14:55:23;;;;;;;11.32;1.38;;;;;;;;;;4974240;28;20022;-77
2023/02/05 14:57:56;;;;;;;8.43;1.20;;;;;;;;;;4988849;28;20038;-78
2023/02/05 15:00:24;;;;;;;13.38;1.65;;;;;;;;;;4990866;28;20037;-78
2023/02/05 15:02:56;;;;;;;8.73;1.50;;;;;;;;;;4975474;28;20041;-78
2023/02/05 15:05:28;;;;;;;10.85;1.90;;;;;;;;;;4986034;28;20493;-78
2023/02/05 15:08:23;;;;;;;14.50;2.33;;;;;;;;;;4990385;28;20706;-78